createdAt,value
2019-03-31T00:00:00.491Z,5.80
2019-03-31T00:02:30.450Z,5.80
2019-03-31T00:05:00.564Z,5.80
2019-03-31T00:07:30.587Z,5.80
2019-03-31T00:10:00.526Z,5.80
2019-03-31T00:12:30.454Z,5.80
2019-03-31T00:15:00.433Z,5.80
2019-03-31T00:17:30.370Z,5.90
2019-03-31T00:20:00.398Z,5.90
2019-03-31T00:22:30.381Z,5.80
2019-03-31T00:25:00.383Z,5.80
2019-03-31T00:27:30.301Z,5.80
2019-03-31T00:30:00.484Z,5.80
2019-03-31T00:32:30.438Z,5.80
2019-03-31T00:35:00.425Z,5.80
2019-03-31T00:37:30.361Z,5.70
2019-03-31T00:40:00.362Z,5.70
2019-03-31T00:42:30.338Z,5.60
2019-03-31T00:45:00.360Z,5.60
2019-03-31T00:47:30.483Z,5.60
2019-03-31T00:50:00.588Z,5.60
2019-03-31T00:52:30.810Z,5.50
2019-03-31T00:55:00.683Z,5.50
2019-03-31T00:57:30.699Z,5.50
2019-03-31T01:00:00.640Z,5.50
2019-03-31T01:02:32.947Z,5.40
2019-03-31T01:05:03.894Z,5.40
2019-03-31T01:07:34.001Z,5.40
2019-03-31T01:10:05.003Z,5.30
2019-03-31T01:12:35.105Z,5.30
2019-03-31T01:15:09.987Z,5.30
2019-03-31T01:17:40.110Z,5.40
2019-03-31T01:20:10.390Z,5.30
2019-03-31T01:22:40.282Z,5.30
2019-03-31T01:25:10.948Z,5.30
2019-03-31T01:27:41.231Z,5.30
2019-03-31T01:30:12.747Z,5.30
2019-03-31T01:32:42.894Z,5.30
2019-03-31T01:35:13.270Z,5.30
2019-03-31T01:37:43.312Z,5.30
2019-03-31T01:40:13.670Z,5.30
2019-03-31T01:42:43.630Z,5.30
2019-03-31T01:45:13.910Z,5.30
2019-03-31T01:47:43.787Z,5.40
2019-03-31T01:50:16.114Z,5.40
2019-03-31T01:52:45.920Z,5.40
2019-03-31T01:55:15.947Z,5.40
2019-03-31T01:57:46.157Z,5.40
2019-03-31T02:00:33.357Z,5.40
2019-03-31T02:03:03.691Z,5.40
2019-03-31T02:05:33.696Z,5.40
2019-03-31T02:08:03.786Z,5.30
2019-03-31T02:10:33.834Z,5.30
2019-03-31T02:13:03.797Z,5.30
2019-03-31T02:15:33.819Z,5.20
2019-03-31T02:18:03.792Z,5.20
2019-03-31T02:20:33.953Z,5.20
2019-03-31T02:23:03.913Z,5.10
2019-03-31T02:25:34.089Z,5.10
2019-03-31T02:28:04.111Z,5.00
2019-03-31T02:30:34.071Z,5.00
2019-03-31T02:33:04.087Z,5.00
2019-03-31T02:35:34.057Z,5.00
2019-03-31T02:38:04.016Z,5.00
2019-03-31T02:40:34.118Z,5.10
2019-03-31T02:43:04.030Z,5.00
2019-03-31T02:45:34.111Z,5.00
2019-03-31T02:48:04.130Z,4.90
2019-03-31T02:50:50.212Z,5.00
2019-03-31T02:53:20.948Z,4.90
2019-03-31T02:55:52.794Z,4.80
2019-03-31T02:58:23.170Z,4.80
2019-03-31T03:00:54.109Z,4.70
2019-03-31T03:03:23.973Z,4.70
2019-03-31T03:05:56.583Z,4.60
2019-03-31T03:08:28.660Z,4.60
2019-03-31T03:11:01.597Z,4.60
2019-03-31T03:13:33.145Z,4.50
2019-03-31T03:16:28.299Z,4.50
2019-03-31T03:18:58.339Z,4.50
2019-03-31T03:21:28.432Z,4.50
2019-03-31T03:23:58.913Z,4.40
2019-03-31T03:26:28.985Z,4.40
2019-03-31T03:28:58.834Z,4.40
2019-03-31T03:31:28.804Z,4.40
2019-03-31T03:33:58.745Z,4.40
2019-03-31T03:36:28.704Z,4.40
2019-03-31T03:38:58.678Z,4.40
2019-03-31T03:41:28.666Z,4.40
2019-03-31T03:44:02.303Z,4.40
2019-03-31T03:46:30.322Z,4.30
2019-03-31T03:49:00.451Z,4.40
2019-03-31T03:51:30.607Z,4.40
2019-03-31T03:54:00.559Z,4.30
2019-03-31T03:56:30.605Z,4.40
2019-03-31T03:59:00.797Z,4.40
2019-03-31T04:01:32.666Z,4.30
2019-03-31T04:04:02.715Z,4.30
2019-03-31T04:06:32.777Z,4.30
2019-03-31T04:09:04.538Z,4.30
2019-03-31T04:11:34.461Z,4.30
2019-03-31T04:14:04.636Z,4.30
2019-03-31T04:16:34.682Z,4.20
2019-03-31T04:19:04.691Z,4.20
2019-03-31T04:21:34.671Z,4.30
2019-03-31T04:24:04.697Z,4.20
2019-03-31T04:26:34.724Z,4.20
2019-03-31T04:29:04.827Z,4.20
2019-03-31T04:31:34.975Z,4.20
2019-03-31T04:34:04.894Z,4.20
2019-03-31T04:36:34.864Z,4.20
2019-03-31T04:39:06.656Z,4.20
2019-03-31T04:41:36.675Z,4.20
2019-03-31T04:44:06.579Z,4.20
2019-03-31T04:46:36.587Z,4.20
2019-03-31T04:49:06.586Z,4.20
2019-03-31T04:51:36.619Z,4.20
2019-03-31T04:54:06.616Z,4.10
2019-03-31T04:56:36.602Z,4.20
2019-03-31T04:59:06.635Z,4.20
2019-03-31T05:01:36.600Z,4.20
2019-03-31T05:04:06.550Z,4.20
2019-03-31T05:06:36.522Z,4.20
2019-03-31T05:09:07.314Z,4.20
2019-03-31T05:11:37.399Z,4.20
2019-03-31T05:14:07.513Z,4.30
2019-03-31T05:16:37.400Z,4.30
2019-03-31T05:19:07.321Z,4.30
2019-03-31T05:21:37.391Z,4.30
2019-03-31T05:24:07.346Z,4.40
2019-03-31T05:26:37.299Z,4.40
2019-03-31T05:29:07.272Z,4.50
2019-03-31T05:31:37.274Z,4.50
2019-03-31T05:34:18.523Z,4.60
2019-03-31T05:36:38.885Z,4.70
2019-03-31T05:39:08.943Z,4.70
2019-03-31T05:41:38.896Z,4.80
2019-03-31T05:44:09.110Z,4.80
2019-03-31T05:46:39.178Z,4.90
2019-03-31T05:49:09.192Z,5.00
2019-03-31T05:51:39.159Z,5.00
2019-03-31T05:54:09.135Z,5.10
2019-03-31T05:56:39.139Z,5.30
2019-03-31T05:59:09.213Z,5.30
2019-03-31T06:01:39.194Z,5.40
2019-03-31T06:04:09.286Z,5.50
2019-03-31T06:06:39.294Z,5.60
2019-03-31T06:09:09.174Z,5.70
2019-03-31T06:11:39.835Z,5.80
2019-03-31T06:14:09.922Z,6.00
2019-03-31T06:16:39.922Z,6.00
2019-03-31T06:19:09.919Z,6.20
2019-03-31T06:21:39.862Z,6.30
2019-03-31T06:24:09.813Z,6.50
2019-03-31T06:26:39.778Z,6.70
2019-03-31T06:29:09.712Z,6.90
2019-03-31T06:31:39.608Z,7.00
2019-03-31T06:34:09.612Z,7.20
2019-03-31T06:36:39.563Z,7.40
2019-03-31T06:39:09.622Z,7.50
2019-03-31T06:41:39.610Z,7.70
2019-03-31T06:44:09.599Z,8.00
2019-03-31T06:46:39.567Z,8.20
2019-03-31T06:49:09.692Z,8.40
2019-03-31T06:51:39.651Z,8.50
2019-03-31T06:54:09.573Z,8.50
2019-03-31T06:56:39.577Z,8.60
2019-03-31T06:59:09.538Z,8.60
2019-03-31T07:01:39.550Z,8.70
2019-03-31T07:04:09.545Z,8.80
2019-03-31T07:06:39.447Z,8.80
2019-03-31T07:09:09.507Z,8.90
2019-03-31T07:11:39.525Z,9.10
2019-03-31T07:14:09.490Z,9.20
2019-03-31T07:16:39.454Z,9.20
2019-03-31T07:19:09.405Z,9.30
2019-03-31T07:21:39.382Z,9.40
2019-03-31T07:24:09.348Z,9.30
2019-03-31T07:26:39.418Z,9.40
2019-03-31T07:29:09.264Z,9.50
2019-03-31T07:31:39.349Z,9.60
2019-03-31T07:34:09.359Z,9.70
2019-03-31T07:36:39.349Z,9.80
2019-03-31T07:39:09.402Z,10.10
2019-03-31T07:41:39.561Z,10.20
2019-03-31T07:44:09.473Z,10.30
2019-03-31T07:46:39.473Z,10.60
2019-03-31T07:49:09.449Z,10.80
2019-03-31T07:51:39.470Z,10.90
2019-03-31T07:54:09.494Z,11.00
2019-03-31T07:56:40.080Z,11.20
2019-03-31T07:59:10.435Z,11.30
2019-03-31T08:01:40.450Z,11.40
2019-03-31T08:04:10.426Z,11.60
2019-03-31T08:06:40.426Z,11.50
2019-03-31T08:09:10.710Z,11.60
2019-03-31T08:11:40.706Z,11.70
2019-03-31T08:14:10.652Z,11.70
2019-03-31T08:16:40.675Z,11.70
2019-03-31T08:19:10.721Z,11.50
2019-03-31T08:21:40.700Z,11.40
2019-03-31T08:24:10.727Z,11.50
2019-03-31T08:26:40.674Z,11.50
2019-03-31T08:29:10.627Z,11.40
2019-03-31T08:31:40.514Z,11.40
2019-03-31T08:34:10.546Z,11.40
2019-03-31T08:36:40.477Z,11.30
2019-03-31T08:39:10.522Z,11.50
2019-03-31T08:41:40.640Z,11.50
2019-03-31T08:44:10.595Z,11.40
2019-03-31T08:46:40.582Z,11.50
2019-03-31T08:49:10.526Z,11.50
2019-03-31T08:51:40.526Z,11.50
2019-03-31T08:54:10.494Z,11.40
2019-03-31T08:56:40.486Z,11.60
2019-03-31T08:59:10.425Z,11.50
2019-03-31T09:01:40.395Z,11.50
2019-03-31T09:04:10.451Z,11.80
2019-03-31T09:06:40.478Z,11.90
2019-03-31T09:09:10.586Z,12.10
2019-03-31T09:11:40.611Z,12.00
2019-03-31T09:14:10.750Z,12.10
2019-03-31T09:16:40.814Z,12.00
2019-03-31T09:19:10.855Z,11.90
2019-03-31T09:21:40.942Z,12.00
2019-03-31T09:24:10.978Z,12.10
2019-03-31T09:26:40.887Z,12.00
2019-03-31T09:29:10.961Z,11.80
2019-03-31T09:31:41.022Z,11.90
2019-03-31T09:34:11.063Z,11.80
2019-03-31T09:36:41.058Z,11.70
2019-03-31T09:39:10.985Z,11.70
2019-03-31T09:41:41.089Z,11.70
2019-03-31T09:44:11.169Z,11.70
2019-03-31T09:46:41.353Z,11.70
2019-03-31T09:49:11.453Z,11.80
2019-03-31T09:51:41.697Z,12.00
2019-03-31T09:54:12.639Z,12.10
2019-03-31T09:56:42.702Z,12.10
2019-03-31T09:59:12.786Z,12.10
2019-03-31T10:01:42.826Z,12.40
2019-03-31T10:04:12.897Z,12.60
2019-03-31T10:06:43.358Z,12.70
2019-03-31T10:09:13.171Z,12.70
2019-03-31T10:11:43.364Z,13.20
2019-03-31T10:14:13.407Z,13.40
2019-03-31T10:16:43.378Z,13.70
2019-03-31T10:19:13.611Z,13.70
2019-03-31T10:21:43.654Z,13.40
2019-03-31T10:24:13.752Z,13.20
2019-03-31T10:26:43.882Z,13.20
2019-03-31T10:29:13.926Z,13.20
2019-03-31T10:31:43.882Z,13.10
2019-03-31T10:34:14.089Z,13.40
2019-03-31T10:36:45.085Z,13.30
2019-03-31T10:39:15.303Z,13.20
2019-03-31T10:41:45.430Z,13.50
2019-03-31T10:44:15.544Z,13.50
2019-03-31T10:46:45.735Z,13.50
2019-03-31T10:49:15.829Z,13.70
2019-03-31T10:51:45.897Z,13.80
2019-03-31T10:54:16.005Z,13.80
2019-03-31T10:56:46.028Z,14.10
2019-03-31T10:59:16.071Z,14.00
2019-03-31T11:01:46.263Z,14.00
2019-03-31T11:04:16.493Z,14.00
2019-03-31T11:06:58.426Z,14.20
2019-03-31T11:09:18.219Z,14.10
2019-03-31T11:11:48.155Z,14.20
2019-03-31T11:14:18.158Z,14.30
2019-03-31T11:16:48.487Z,14.50
2019-03-31T11:19:18.453Z,14.60
2019-03-31T11:22:13.514Z,14.70
2019-03-31T11:24:43.515Z,14.60
2019-03-31T11:27:13.614Z,14.90
2019-03-31T11:29:43.632Z,15.10
2019-03-31T11:32:13.690Z,14.90
2019-03-31T11:34:43.807Z,14.60
2019-03-31T11:37:14.187Z,14.70
2019-03-31T11:39:44.331Z,14.80
2019-03-31T11:42:14.338Z,14.80
2019-03-31T11:44:44.438Z,14.70
2019-03-31T11:47:14.396Z,14.70
2019-03-31T11:49:44.394Z,14.70
2019-03-31T11:52:14.550Z,14.70
2019-03-31T11:54:46.020Z,15.00
2019-03-31T11:57:17.718Z,14.90
2019-03-31T11:59:49.684Z,15.00
2019-03-31T12:02:27.098Z,15.10
2019-03-31T12:04:51.488Z,15.20
2019-03-31T12:07:27.827Z,15.10
2019-03-31T12:09:53.295Z,15.20
2019-03-31T12:12:23.280Z,15.30
2019-03-31T12:15:00.248Z,15.40
2019-03-31T12:17:25.531Z,15.60
2019-03-31T12:19:55.618Z,15.70
2019-03-31T12:22:25.602Z,16.20
2019-03-31T12:24:55.537Z,16.10
2019-03-31T12:27:25.666Z,16.00
2019-03-31T12:29:55.566Z,16.00
2019-03-31T12:32:25.538Z,16.20
2019-03-31T12:34:55.787Z,16.60
2019-03-31T12:37:25.965Z,16.40
2019-03-31T12:39:56.054Z,16.70
2019-03-31T12:42:26.002Z,16.80
2019-03-31T12:44:56.010Z,16.90
2019-03-31T12:47:26.086Z,16.80
2019-03-31T12:49:56.063Z,16.90
2019-03-31T12:52:26.026Z,17.20
2019-03-31T12:54:58.070Z,16.50
2019-03-31T12:57:27.994Z,16.10
2019-03-31T12:59:57.954Z,16.30
2019-03-31T13:02:28.093Z,16.10
2019-03-31T13:04:58.195Z,15.80
2019-03-31T13:07:28.226Z,15.90
2019-03-31T13:09:58.254Z,16.10
2019-03-31T13:12:28.269Z,15.80
2019-03-31T13:14:58.313Z,15.70
2019-03-31T13:17:28.283Z,15.70
2019-03-31T13:19:58.253Z,16.00
2019-03-31T13:22:28.396Z,16.20
2019-03-31T13:25:02.029Z,16.20
2019-03-31T13:27:30.100Z,16.50
2019-03-31T13:30:00.050Z,17.00
2019-03-31T13:32:30.163Z,17.00
2019-03-31T13:35:00.100Z,17.10
2019-03-31T13:37:30.156Z,16.90
2019-03-31T13:40:00.361Z,16.80
2019-03-31T13:42:30.482Z,17.00
2019-03-31T13:45:00.511Z,16.70
2019-03-31T13:47:30.565Z,16.50
2019-03-31T13:50:00.561Z,15.80
2019-03-31T13:52:30.543Z,15.30
2019-03-31T13:55:00.784Z,15.50
2019-03-31T13:57:32.533Z,16.40
2019-03-31T14:00:09.721Z,16.70
2019-03-31T14:02:39.746Z,16.80
2019-03-31T14:05:09.747Z,15.90
2019-03-31T14:07:39.870Z,16.10
2019-03-31T14:10:10.082Z,16.30
2019-03-31T14:12:40.449Z,15.80
2019-03-31T14:15:18.896Z,16.00
2019-03-31T14:17:42.247Z,16.30
2019-03-31T14:20:13.818Z,16.10
2019-03-31T14:22:43.701Z,15.60
2019-03-31T14:25:13.682Z,14.80
2019-03-31T14:27:43.629Z,14.50
2019-03-31T14:30:13.800Z,14.30
2019-03-31T14:32:43.770Z,14.20
2019-03-31T14:35:13.845Z,14.20
2019-03-31T14:37:43.880Z,13.50
2019-03-31T14:40:13.982Z,13.30
2019-03-31T14:42:44.037Z,13.80
2019-03-31T14:45:22.732Z,14.30
2019-03-31T14:47:52.754Z,14.70
2019-03-31T14:50:33.051Z,14.10
2019-03-31T14:53:03.361Z,13.50
2019-03-31T14:55:33.637Z,13.90
2019-03-31T14:58:03.698Z,14.60
2019-03-31T15:00:33.634Z,14.90
2019-03-31T15:03:03.880Z,15.10
2019-03-31T15:05:37.366Z,15.70
2019-03-31T15:08:07.445Z,15.30
2019-03-31T15:10:37.639Z,14.40
2019-03-31T15:13:07.799Z,14.10
2019-03-31T15:15:38.026Z,14.60
2019-03-31T15:18:08.146Z,15.00
2019-03-31T15:20:38.035Z,15.10
2019-03-31T15:23:08.039Z,15.20
2019-03-31T15:25:38.067Z,14.70
2019-03-31T15:28:07.973Z,15.20
2019-03-31T15:30:37.933Z,15.70
2019-03-31T15:33:07.911Z,15.60
2019-03-31T15:35:38.101Z,15.70
2019-03-31T15:38:08.255Z,15.20
2019-03-31T15:40:38.290Z,15.30
2019-03-31T15:43:08.267Z,15.50
2019-03-31T15:45:38.199Z,15.50
2019-03-31T15:48:08.302Z,15.60
2019-03-31T15:50:38.333Z,15.50
2019-03-31T15:53:08.347Z,15.60
2019-03-31T15:55:40.422Z,15.70
2019-03-31T15:58:10.382Z,15.30
2019-03-31T16:00:40.360Z,16.00
2019-03-31T16:03:10.258Z,16.90
2019-03-31T16:05:40.259Z,16.50
2019-03-31T16:08:09.775Z,15.60
2019-03-31T16:10:39.206Z,15.20
2019-03-31T16:13:08.627Z,15.20
2019-03-31T16:15:38.193Z,15.00
2019-03-31T16:18:07.604Z,15.20
2019-03-31T16:20:37.135Z,14.60
2019-03-31T16:23:06.651Z,14.40
2019-03-31T16:25:42.101Z,14.50
2019-03-31T16:28:11.562Z,14.10
2019-03-31T16:30:41.026Z,13.90
2019-03-31T16:33:10.537Z,13.50
2019-03-31T16:35:40.085Z,13.40
2019-03-31T16:38:09.565Z,13.20
2019-03-31T16:40:39.010Z,13.50
2019-03-31T16:43:08.538Z,13.20
2019-03-31T16:45:38.019Z,13.00
2019-03-31T16:48:07.525Z,13.00
2019-03-31T16:50:36.969Z,12.70
2019-03-31T16:53:06.366Z,12.50
2019-03-31T16:55:36.151Z,12.50
2019-03-31T16:58:09.191Z,12.50
2019-03-31T17:00:36.815Z,12.20
2019-03-31T17:03:06.425Z,12.00
2019-03-31T17:05:35.894Z,11.60
2019-03-31T17:08:05.368Z,11.50
2019-03-31T17:10:35.021Z,11.30
2019-03-31T17:13:04.497Z,11.20
2019-03-31T17:15:34.126Z,11.00
2019-03-31T17:18:03.782Z,10.80
2019-03-31T17:20:33.193Z,10.70
2019-03-31T17:23:02.674Z,10.60
2019-03-31T17:25:32.161Z,10.60
2019-03-31T17:28:01.618Z,10.40
2019-03-31T17:30:30.956Z,10.40
2019-03-31T17:33:00.663Z,10.20
2019-03-31T17:35:30.303Z,10.10
2019-03-31T17:37:59.840Z,10.10
2019-03-31T17:40:29.183Z,10.10
2019-03-31T17:42:58.718Z,9.90
2019-03-31T17:45:28.101Z,10.00
2019-03-31T17:47:57.556Z,9.90
2019-03-31T17:50:27.075Z,9.80
2019-03-31T17:52:56.555Z,9.90
2019-03-31T17:55:25.916Z,9.80
2019-03-31T17:57:55.475Z,9.70
2019-03-31T18:00:27.768Z,9.70
2019-03-31T18:02:57.196Z,9.70
2019-03-31T18:05:26.635Z,9.60
2019-03-31T18:07:56.097Z,9.60
2019-03-31T18:10:25.582Z,9.50
2019-03-31T18:12:55.078Z,9.50
2019-03-31T18:15:24.542Z,9.40
2019-03-31T18:17:53.966Z,9.40
2019-03-31T18:20:23.417Z,9.30
2019-03-31T18:22:52.839Z,9.30
2019-03-31T18:25:22.271Z,9.20
2019-03-31T18:27:51.670Z,9.20
2019-03-31T18:30:21.287Z,9.10
2019-03-31T18:32:50.738Z,9.10
2019-03-31T18:35:20.268Z,9.10
2019-03-31T18:37:49.691Z,9.00
2019-03-31T18:40:19.055Z,8.90
2019-03-31T18:42:48.567Z,8.90
2019-03-31T18:45:17.934Z,8.90
2019-03-31T18:47:47.452Z,8.80
2019-03-31T18:50:17.103Z,8.70
2019-03-31T18:52:46.474Z,8.70
2019-03-31T18:55:43.809Z,8.70
2019-03-31T18:58:22.475Z,8.60
2019-03-31T19:01:14.362Z,8.50
2019-03-31T19:04:11.758Z,8.50
2019-03-31T19:07:06.314Z,8.40
2019-03-31T19:09:57.538Z,8.30
2019-03-31T19:12:48.927Z,8.20
2019-03-31T19:15:36.138Z,8.10
2019-03-31T19:18:36.755Z,8.10
2019-03-31T19:21:15.206Z,8.00
2019-03-31T19:23:52.970Z,8.00
2019-03-31T19:26:48.085Z,7.90
2019-03-31T19:29:25.815Z,7.80
2019-03-31T19:32:05.538Z,7.70
2019-03-31T19:34:57.056Z,7.50
2019-03-31T19:37:39.889Z,7.40
2019-03-31T19:40:27.299Z,7.20
2019-03-31T19:43:16.271Z,7.10
2019-03-31T19:46:05.783Z,7.00
2019-03-31T19:48:52.455Z,6.90
2019-03-31T19:51:39.696Z,6.90
2019-03-31T19:54:26.718Z,6.80
2019-03-31T19:57:23.949Z,6.60
2019-03-31T20:00:06.978Z,6.60
2019-03-31T20:03:04.478Z,6.50
2019-03-31T20:05:56.356Z,6.40
2019-03-31T20:08:37.418Z,6.40
2019-03-31T20:11:17.380Z,6.30
2019-03-31T20:13:56.742Z,6.30
2019-03-31T20:16:43.406Z,6.20
2019-03-31T20:19:34.574Z,6.10
2019-03-31T20:22:21.768Z,6.10
2019-03-31T20:25:22.416Z,6.00
2019-03-31T20:28:15.232Z,6.00
2019-03-31T20:31:02.604Z,5.90
2019-03-31T20:33:54.269Z,5.90
2019-03-31T20:36:39.583Z,5.80
2019-03-31T20:39:34.566Z,5.80
2019-03-31T20:42:21.791Z,5.70
2019-03-31T20:44:51.324Z,5.70
2019-03-31T20:47:20.704Z,5.60
2019-03-31T20:49:50.208Z,5.60
2019-03-31T20:52:19.599Z,5.60
2019-03-31T20:54:48.986Z,5.60
2019-03-31T20:57:18.433Z,5.50
2019-03-31T20:59:47.884Z,5.50
2019-03-31T21:02:17.554Z,5.50
2019-03-31T21:04:46.990Z,5.40
2019-03-31T21:07:16.457Z,5.30
2019-03-31T21:09:45.890Z,5.30
2019-03-31T21:12:15.298Z,5.30
2019-03-31T21:14:44.730Z,5.20
2019-03-31T21:17:14.094Z,5.20
2019-03-31T21:19:43.543Z,5.10
2019-03-31T21:22:12.990Z,5.10
2019-03-31T21:24:42.418Z,5.10
2019-03-31T21:27:11.856Z,5.10
2019-03-31T21:29:41.271Z,5.00
2019-03-31T21:32:10.655Z,5.00
2019-03-31T21:34:40.216Z,5.00
2019-03-31T21:37:09.534Z,5.00
2019-03-31T21:39:39.262Z,4.90
2019-03-31T21:42:08.730Z,4.90
2019-03-31T21:44:38.245Z,4.90
2019-03-31T21:47:07.715Z,4.80
2019-03-31T21:49:37.034Z,4.80
2019-03-31T21:52:06.474Z,4.80
2019-03-31T21:54:35.856Z,4.70
2019-03-31T21:57:05.285Z,4.70
2019-03-31T21:59:34.653Z,4.80
2019-03-31T22:02:04.506Z,4.70
2019-03-31T22:04:33.946Z,4.70
2019-03-31T22:07:03.567Z,4.70
2019-03-31T22:09:32.982Z,4.60
2019-03-31T22:12:02.668Z,4.60
2019-03-31T22:14:32.202Z,4.50
2019-03-31T22:17:01.746Z,4.50
2019-03-31T22:19:31.121Z,4.50
2019-03-31T22:22:00.515Z,4.40
2019-03-31T22:24:29.995Z,4.30
2019-03-31T22:26:59.456Z,4.30
2019-03-31T22:29:28.815Z,4.30
2019-03-31T22:31:58.249Z,4.20
2019-03-31T22:34:27.637Z,4.20
2019-03-31T22:36:57.014Z,4.20
2019-03-31T22:39:26.442Z,4.10
2019-03-31T22:41:55.824Z,4.10
2019-03-31T22:44:25.275Z,4.10
2019-03-31T22:46:54.804Z,4.10
2019-03-31T22:49:24.378Z,4.00
2019-03-31T22:51:56.417Z,4.00
2019-03-31T22:54:24.982Z,4.00
2019-03-31T22:56:54.486Z,4.00
2019-03-31T22:59:24.038Z,4.00
2019-03-31T23:01:53.487Z,3.90
2019-03-31T23:04:23.063Z,3.90
2019-03-31T23:06:52.435Z,3.80
2019-03-31T23:09:21.878Z,3.80
2019-03-31T23:11:51.479Z,3.70
2019-03-31T23:14:20.904Z,3.70
2019-03-31T23:16:50.339Z,3.70
2019-03-31T23:19:19.729Z,3.70
2019-03-31T23:21:49.154Z,3.60
2019-03-31T23:24:18.578Z,3.60
2019-03-31T23:26:47.979Z,3.60
2019-03-31T23:29:17.354Z,3.50
2019-03-31T23:31:46.735Z,3.50
2019-03-31T23:34:16.121Z,3.50
2019-03-31T23:36:45.571Z,3.40
2019-03-31T23:39:14.928Z,3.30
2019-03-31T23:41:44.403Z,3.30
2019-03-31T23:44:13.822Z,3.30
2019-03-31T23:46:43.290Z,3.30
2019-03-31T23:49:12.642Z,3.30
2019-03-31T23:51:42.062Z,3.30
2019-03-31T23:54:11.494Z,3.20
2019-03-31T23:56:40.971Z,3.10
2019-03-31T23:59:10.342Z,3.10
